FXMM/MSU METAR and TAF weather

Enter ICAO airport designator
Station Type Date Time Source
FXMM METAR 2020/01/23 09:00 UTC NOAA

FXMM 230900Z 35004KT 9999 SCT035 24/09 Q1019 NOSIG


Station Type Date Time Source
FXMM Decoded METAR 2020/01/23 09:00 UTC NOAA

Maseru / Moshoeshoe, Lesotho (FXMM) 29-27S 027-33E
Jan 23, 2020 - 04:00 AM EST / 2020.01.23 0900 UTC
Wind: from the N (350 degrees) at 5 MPH (4 KT):0
Visibility: greater than 7 mile(s):0
Sky conditions: partly cloudy
Temperature: 75 F (24 C)
Dew Point: 48 F (9 C)
Relative Humidity: 38%
Pressure (altimeter): 30.09 in. Hg (1019 hPa)
ob: FXMM 230900Z 35004KT 9999 SCT035 24/09 Q1019 NOSIG
cycle: 9

Station Type Date Time Source
FXMM TAF 2020/01/22 06:18 UTC NOAA

TAF TAF FXMM 220400Z 2206/2306 36006KT 9999 FEW030
BECMG 2209/2211 32010KT
FM221200 27014KT
FM221400 24010KT
BECMG 2217/2219 CAVOK
FM222000 00000KT

Example: see airport list